Time;durP1;ratioP1;P1;durP2;ratioP2;P2;SDS_P1;SDS_P2;PMS_P1;PMS_P2;Temp;Humidity;BMP_temperature;BMP_pressure;BME280_temperature;BME280_humidity;BME280_pressure;Samples;Min_cycle;Max_cycle;Signal;HPM_P1;HPM_P2
2023/03/12 00:00:54;;;;;;;3.22;2.55;;;1.70;99.90;;;;;;6229291;23;20004;-95
2023/03/12 00:03:20;;;;;;;4.32;2.28;;;1.70;99.90;;;;;;6230532;23;20004;-95
2023/03/12 00:05:45;;;;;;;3.80;2.95;;;1.70;99.90;;;;;;6233085;23;20011;-95
2023/03/12 00:08:12;;;;;;;2.83;2.10;;;1.70;99.90;;;;;;6229629;23;20008;-90
2023/03/12 00:10:39;;;;;;;2.80;2.20;;;1.70;99.90;;;;;;6229288;23;20007;-95
2023/03/12 00:13:06;;;;;;;3.33;2.00;;;1.70;99.90;;;;;;6229192;23;19996;-93
2023/03/12 00:15:34;;;;;;;2.08;1.80;;;1.70;99.90;;;;;;6236045;23;20064;-95
2023/03/12 00:18:00;;;;;;;2.97;2.25;;;1.70;99.90;;;;;;6234685;23;20008;-93
2023/03/12 00:20:26;;;;;;;2.53;2.03;;;1.70;99.90;;;;;;6261656;23;20004;-93
2023/03/12 00:22:51;;;;;;;2.13;1.77;;;1.70;99.90;;;;;;6229501;23;20340;-95
2023/03/12 00:25:20;;;;;;;2.58;1.70;;;1.80;99.90;;;;;;6228278;23;20091;-93
2023/03/12 00:27:46;;;;;;;6.60;2.60;;;1.80;99.90;;;;;;6231556;23;20022;-94
2023/03/12 00:30:12;;;;;;;2.35;2.08;;;1.80;99.90;;;;;;6223084;23;20000;-95
2023/03/12 00:32:38;;;;;;;2.60;1.80;;;1.80;99.90;;;;;;6229829;23;20011;-93
2023/03/12 00:35:05;;;;;;;3.50;2.33;;;1.80;99.90;;;;;;6226319;23;20008;-93
2023/03/12 00:37:32;;;;;;;3.22;2.20;;;1.80;99.90;;;;;;6224437;23;20012;-90
2023/03/12 00:40:00;;;;;;;1.52;1.42;;;1.80;99.90;;;;;;6217489;23;20039;-95
2023/03/12 00:42:26;;;;;;;2.35;1.88;;;1.80;99.90;;;;;;6216889;23;20016;-94
2023/03/12 00:44:52;;;;;;;2.15;1.60;;;1.80;99.90;;;;;;6217124;23;20011;-92
2023/03/12 00:47:18;;;;;;;2.55;2.00;;;1.80;99.90;;;;;;6216643;23;20079;-93
2023/03/12 00:49:43;;;;;;;1.75;1.48;;;1.80;99.90;;;;;;6191265;23;20008;-93
2023/03/12 00:52:09;;;;;;;3.03;2.10;;;1.90;99.90;;;;;;6189752;23;20055;-92
2023/03/12 00:54:35;;;;;;;3.13;1.77;;;1.90;99.90;;;;;;6189445;23;20005;-94
2023/03/12 00:57:01;;;;;;;2.20;1.98;;;1.90;99.90;;;;;;6189550;23;20527;-94
2023/03/12 00:59:26;;;;;;;2.63;1.83;;;1.90;99.90;;;;;;6189874;23;20029;-94
2023/03/12 01:01:52;;;;;;;2.10;1.90;;;1.90;99.90;;;;;;6190100;23;20012;-94
2023/03/12 01:04:18;;;;;;;2.50;2.00;;;1.90;99.90;;;;;;6189643;23;20486;-94
2023/03/12 01:06:44;;;;;;;2.35;1.95;;;1.90;99.90;;;;;;6189386;23;20028;-94
2023/03/12 01:09:09;;;;;;;2.55;1.65;;;1.90;99.90;;;;;;6189023;23;20024;-94
2023/03/12 01:11:36;;;;;;;2.15;1.73;;;1.90;99.90;;;;;;6190042;23;20059;-94
2023/03/12 01:14:03;;;;;;;3.65;1.60;;;1.90;99.90;;;;;;6224752;23;20444;-95
2023/03/12 01:16:29;;;;;;;2.55;1.75;;;1.90;99.90;;;;;;6220344;23;20479;-93
2023/03/12 01:18:57;;;;;;;2.78;1.83;;;1.90;99.90;;;;;;6195216;23;20004;-94
2023/03/12 01:21:23;;;;;;;2.15;1.95;;;1.90;99.90;;;;;;6190792;23;20032;-93
2023/03/12 01:23:49;;;;;;;1.90;1.50;;;1.90;99.90;;;;;;6190725;23;20001;-93
2023/03/12 01:26:15;;;;;;;2.38;1.90;;;1.90;99.90;;;;;;6227751;23;19995;-90
2023/03/12 01:28:40;;;;;;;2.50;1.73;;;1.90;99.90;;;;;;6195473;23;20019;-92
2023/03/12 01:31:16;;;;;;;2.08;1.63;;;2.00;99.90;;;;;;6191683;23;20012;-92
2023/03/12 01:33:42;;;;;;;2.13;1.65;;;1.90;99.90;;;;;;6216628;23;20004;-93
2023/03/12 01:36:20;;;;;;;2.00;1.63;;;2.00;99.90;;;;;;6190962;23;20013;-92
2023/03/12 01:38:46;;;;;;;1.85;1.40;;;1.90;99.90;;;;;;6216198;23;20022;-93
2023/03/12 01:41:12;;;;;;;3.13;2.05;;;1.90;99.90;;;;;;6216596;23;20005;-93
2023/03/12 01:43:39;;;;;;;2.65;1.90;;;1.90;99.90;;;;;;6215376;23;20005;-95
2023/03/12 01:46:17;;;;;;;2.60;1.90;;;2.00;99.90;;;;;;6190518;23;20035;-91
2023/03/12 01:48:47;;;;;;;2.85;2.08;;;2.00;99.90;;;;;;6189546;23;19997;-92
2023/03/12 01:51:15;;;;;;;2.53;2.00;;;2.00;99.90;;;;;;6215705;23;20012;-93
2023/03/12 01:53:44;;;;;;;2.30;1.75;;;2.00;99.90;;;;;;6218645;23;20004;-93
2023/03/12 01:56:11;;;;;;;3.10;1.90;;;2.00;99.90;;;;;;6224935;23;20000;-93
2023/03/12 01:58:39;;;;;;;2.20;1.98;;;2.00;99.90;;;;;;6217698;23;20028;-92
2023/03/12 02:01:05;;;;;;;2.75;2.22;;;2.00;99.90;;;;;;6217071;23;20001;-94
2023/03/12 02:03:33;;;;;;;3.80;2.40;;;2.00;99.90;;;;;;6218654;23;20013;-93
2023/03/12 02:06:07;;;;;;;3.15;2.38;;;2.00;99.90;;;;;;6216894;23;20008;-93
2023/03/12 02:08:36;;;;;;;4.63;2.63;;;2.00;99.90;;;;;;6216890;23;20031;-93
2023/03/12 02:11:02;;;;;;;5.10;2.87;;;2.00;99.90;;;;;;6216463;23;19996;-93
2023/03/12 02:13:28;;;;;;;5.85;3.25;;;2.00;99.90;;;;;;6216510;23;20028;-94
2023/03/12 02:15:54;;;;;;;5.10;3.10;;;2.10;99.90;;;;;;6216341;23;20013;-93
2023/03/12 02:18:20;;;;;;;6.28;3.42;;;2.00;99.90;;;;;;6216549;23;20027;-91
2023/03/12 02:21:13;;;;;;;7.30;3.60;;;2.10;99.90;;;;;;6217896;23;20447;-95
2023/03/12 02:24:10;;;;;;;5.65;3.42;;;2.10;99.90;;;;;;6200682;23;20004;-92
2023/03/12 02:26:38;;;;;;;26.00;8.70;;;2.10;99.90;;;;;;6191743;23;20008;-92
2023/03/12 02:29:05;;;;;;;13.80;5.97;;;2.20;99.90;;;;;;6234589;23;20000;-90
2023/03/12 02:31:37;;;;;;;18.55;7.10;;;2.30;99.90;;;;;;6241511;23;20005;-90
2023/03/12 02:34:03;;;;;;;14.02;6.07;;;2.40;99.90;;;;;;6241882;23;20224;-91
2023/03/12 02:36:28;;;;;;;15.82;6.07;;;2.50;99.90;;;;;;6240531;23;20023;-92
2023/03/12 02:38:55;;;;;;;15.07;6.65;;;2.50;99.90;;;;;;6211898;23;20060;-93
2023/03/12 02:41:36;;;;;;;25.20;8.57;;;2.60;99.90;;;;;;6236256;23;20032;-91
2023/03/12 02:44:24;;;;;;;20.27;9.15;;;2.60;99.90;;;;;;6240524;23;20012;-90
2023/03/12 02:46:53;;;;;;;35.78;12.93;;;2.70;99.90;;;;;;6196282;23;20001;-92
2023/03/12 02:49:21;;;;;;;33.45;14.50;;;2.80;99.90;;;;;;6204210;23;20020;-93
2023/03/12 02:51:48;;;;;;;34.08;11.48;;;2.80;99.90;;;;;;6204585;23;20096;-94
2023/03/12 02:54:16;;;;;;;35.78;12.23;;;2.90;99.90;;;;;;6201311;23;20004;-93
2023/03/12 02:56:42;;;;;;;45.97;13.93;;;3.00;99.90;;;;;;6229765;23;20027;-94
2023/03/12 02:59:08;;;;;;;27.52;12.27;;;3.10;99.90;;;;;;6203702;23;20001;-92
2023/03/12 03:01:34;;;;;;;32.08;11.85;;;3.20;99.90;;;;;;6203850;23;20448;-94
2023/03/12 03:04:01;;;;;;;25.77;9.68;;;3.20;99.90;;;;;;6205094;23;20015;-93
2023/03/12 03:06:28;;;;;;;29.75;11.15;;;3.20;99.90;;;;;;6229538;23;20001;-93
2023/03/12 03:08:54;;;;;;;20.67;8.52;;;3.20;99.90;;;;;;6204936;23;20569;-94
2023/03/12 03:11:23;;;;;;;26.17;8.82;;;3.10;99.90;;;;;;6205337;23;20035;-93
2023/03/12 03:13:52;;;;;;;29.30;11.45;;;3.10;99.90;;;;;;6205308;23;20016;-93
2023/03/12 03:16:18;;;;;;;27.60;10.82;;;3.00;99.90;;;;;;6204296;23;20032;-94
2023/03/12 03:18:43;;;;;;;25.50;9.80;;;3.00;99.90;;;;;;6205519;23;19997;-94
2023/03/12 03:21:15;;;;;;;24.10;10.45;;;3.00;99.90;;;;;;6205308;23;20004;-94
2023/03/12 03:23:44;;;;;;;32.17;10.82;;;3.00;99.90;;;;;;6204506;23;20011;-95
2023/03/12 03:26:10;;;;;;;35.00;12.32;;;3.00;99.90;;;;;;6200585;23;20019;-94
2023/03/12 03:28:36;;;;;;;20.90;9.40;;;3.20;99.90;;;;;;6199816;23;20004;-94
2023/03/12 03:31:02;;;;;;;19.38;8.80;;;3.30;99.90;;;;;;6196909;23;20012;-94
2023/03/12 03:33:29;;;;;;;23.63;9.13;;;3.30;99.90;;;;;;6220326;23;20009;-94
2023/03/12 03:35:58;;;;;;;39.42;12.07;;;3.40;99.90;;;;;;6193718;23;20005;-93
2023/03/12 03:38:28;;;;;;;29.67;10.35;;;3.50;99.90;;;;;;6220100;23;20016;-93
2023/03/12 03:40:54;;;;;;;23.75;9.38;;;3.60;99.90;;;;;;6221837;23;20470;-92
2023/03/12 03:43:21;;;;;;;31.55;11.00;;;3.60;99.90;;;;;;6227178;23;20000;-93
2023/03/12 03:45:47;;;;;;;23.25;9.10;;;3.70;99.90;;;;;;6227960;23;20011;-92
2023/03/12 03:48:13;;;;;;;23.55;9.45;;;3.90;99.90;;;;;;6256200;23;20004;-93
2023/03/12 03:50:40;;;;;;;18.77;7.80;;;3.90;99.90;;;;;;6226905;23;20001;-92
2023/03/12 03:53:07;;;;;;;25.52;8.60;;;4.00;99.90;;;;;;6226972;23;20005;-93
2023/03/12 03:55:39;;;;;;;26.52;7.47;;;4.10;99.90;;;;;;6228508;23;20007;-94
2023/03/12 03:58:05;;;;;;;40.05;8.95;;;4.10;99.90;;;;;;6230979;23;20019;-96
2023/03/12 04:00:31;;;;;;;31.40;10.82;;;4.20;99.90;;;;;;6231741;23;20004;-94
2023/03/12 04:02:58;;;;;;;35.88;9.68;;;4.20;99.90;;;;;;6231299;23;20004;-94
2023/03/12 04:05:24;;;;;;;35.00;9.63;;;4.30;99.90;;;;;;6230381;23;20094;-93
2023/03/12 04:07:52;;;;;;;37.75;9.05;;;4.40;99.90;;;;;;6230697;23;20051;-93
2023/03/12 04:10:23;;;;;;;29.08;8.98;;;4.60;99.90;;;;;;6231797;23;20011;-96
2023/03/12 04:12:49;;;;;;;33.15;10.05;;;4.70;99.90;;;;;;6230502;23;20004;-94
2023/03/12 04:15:15;;;;;;;26.75;7.93;;;4.70;99.90;;;;;;6229090;23;20384;-93
2023/03/12 04:17:41;;;;;;;23.80;7.90;;;4.70;99.90;;;;;;6226993;23;20045;-93
2023/03/12 04:20:08;;;;;;;37.38;9.93;;;4.80;99.90;;;;;;6254498;23;20012;-94
2023/03/12 04:22:34;;;;;;;39.47;11.75;;;4.80;99.90;;;;;;6224681;23;20089;-94
2023/03/12 04:25:00;;;;;;;36.13;9.52;;;4.80;99.90;;;;;;6221961;23;20004;-94
2023/03/12 04:27:25;;;;;;;25.77;9.15;;;4.90;99.90;;;;;;6220507;23;20008;-93
2023/03/12 04:29:51;;;;;;;32.05;8.82;;;4.90;99.90;;;;;;6220846;23;20050;-93
2023/03/12 04:32:17;;;;;;;36.10;9.13;;;4.90;99.90;;;;;;6225034;23;20000;-96
2023/03/12 04:34:42;;;;;;;37.70;9.52;;;5.00;99.90;;;;;;6228626;23;20089;-96
2023/03/12 04:37:15;;;;;;;34.65;7.75;;;5.00;99.90;;;;;;6231550;23;20008;-96
2023/03/12 04:39:43;;;;;;;36.50;9.50;;;5.10;99.90;;;;;;6260192;23;20036;-96
2023/03/12 04:42:10;;;;;;;35.90;7.88;;;5.00;99.90;;;;;;6235959;23;20064;-96
2023/03/12 04:44:37;;;;;;;32.17;8.13;;;5.00;99.90;;;;;;6217706;23;20004;-91
2023/03/12 04:47:03;;;;;;;27.88;6.78;;;5.00;99.90;;;;;;6243380;23;20012;-93
2023/03/12 04:49:29;;;;;;;24.42;7.07;;;4.90;99.90;;;;;;6239797;23;20015;-94
2023/03/12 04:51:55;;;;;;;34.25;9.68;;;4.80;99.90;;;;;;6237063;23;20027;-95
2023/03/12 04:54:21;;;;;;;32.28;7.32;;;4.90;99.90;;;;;;6236578;23;20008;-94
2023/03/12 04:56:48;;;;;;;40.90;9.65;;;4.90;99.90;;;;;;6236274;23;20019;-93
2023/03/12 04:59:14;;;;;;;30.80;7.97;;;4.90;99.90;;;;;;6235040;23;20075;-94
2023/03/12 05:01:40;;;;;;;34.03;7.30;;;4.90;99.90;;;;;;6231216;23;20004;-95
2023/03/12 05:04:05;;;;;;;28.15;7.03;;;4.90;99.90;;;;;;6221202;23;20340;-95
2023/03/12 05:06:32;;;;;;;31.13;7.30;;;4.80;99.90;;;;;;6227431;23;20077;-94
2023/03/12 05:08:58;;;;;;;28.40;6.88;;;4.80;99.90;;;;;;6227317;23;20031;-95
2023/03/12 05:11:24;;;;;;;26.15;6.18;;;4.70;99.90;;;;;;6220104;23;20015;-94
2023/03/12 05:13:50;;;;;;;31.77;6.05;;;4.80;99.90;;;;;;6222824;23;20004;-94
2023/03/12 05:16:16;;;;;;;31.85;7.18;;;4.80;99.90;;;;;;6220459;23;20429;-95
2023/03/12 05:18:43;;;;;;;35.63;6.72;;;4.80;99.90;;;;;;6221862;23;20004;-95
2023/03/12 05:21:13;;;;;;;21.63;5.85;;;4.90;99.90;;;;;;6222268;23;20023;-96
2023/03/12 05:23:41;;;;;;;33.30;7.47;;;4.80;99.90;;;;;;6230628;23;20000;-96
2023/03/12 05:26:14;;;;;;;25.77;6.25;;;4.90;99.90;;;;;;6231517;23;20015;-95
2023/03/12 05:28:40;;;;;;;40.33;8.45;;;4.90;99.90;;;;;;6225244;23;20000;-96
2023/03/12 05:31:09;;;;;;;32.55;6.55;;;5.00;99.90;;;;;;6222199;23;20004;-95
2023/03/12 05:33:35;;;;;;;20.40;5.57;;;5.00;99.90;;;;;;6220531;23;20072;-95
2023/03/12 05:36:01;;;;;;;34.35;6.65;;;5.10;99.90;;;;;;6220700;23;20012;-94
2023/03/12 05:38:27;;;;;;;37.47;6.55;;;5.00;99.90;;;;;;6224152;23;20015;-95
2023/03/12 05:40:58;;;;;;;25.48;5.72;;;5.10;99.90;;;;;;6220970;23;20015;-94
2023/03/12 05:43:24;;;;;;;36.80;6.88;;;5.00;99.90;;;;;;6220969;23;20012;-92
2023/03/12 05:45:51;;;;;;;27.85;6.93;;;5.00;99.90;;;;;;6220506;23;20016;-96
2023/03/12 05:48:16;;;;;;;29.20;5.90;;;5.00;99.90;;;;;;6219837;23;20001;-96
2023/03/12 05:50:42;;;;;;;29.17;6.25;;;5.00;99.90;;;;;;6220719;23;20012;-95
2023/03/12 05:53:08;;;;;;;30.98;6.68;;;5.00;99.90;;;;;;6220690;23;20004;-95
2023/03/12 05:55:36;;;;;;;33.28;6.43;;;4.90;99.90;;;;;;6220829;23;20121;-96
2023/03/12 05:58:02;;;;;;;35.58;5.05;;;4.90;99.90;;;;;;6219846;23;20035;-93
2023/03/12 06:00:29;;;;;;;28.70;6.35;;;4.90;99.90;;;;;;6220550;23;20004;-95
2023/03/12 06:02:54;;;;;;;33.30;7.88;;;4.90;99.90;;;;;;6221090;23;20465;-95
2023/03/12 06:05:20;;;;;;;31.17;5.60;;;4.80;99.90;;;;;;6223262;23;20059;-94
2023/03/12 06:07:46;;;;;;;28.92;5.93;;;4.80;99.90;;;;;;6221988;23;20015;-94
2023/03/12 06:10:11;;;;;;;33.97;6.15;;;4.80;99.90;;;;;;6222138;23;20330;-94
2023/03/12 06:12:37;;;;;;;32.97;4.90;;;4.80;99.90;;;;;;6221620;23;20008;-96
2023/03/12 06:15:04;;;;;;;28.67;4.82;;;4.80;99.90;;;;;;6221630;23;20383;-94
2023/03/12 06:17:31;;;;;;;35.17;5.60;;;4.90;99.90;;;;;;6221305;23;20042;-94
2023/03/12 06:19:57;;;;;;;29.83;4.47;;;4.80;99.90;;;;;;6248889;23;20119;-94
2023/03/12 06:22:23;;;;;;;38.88;4.40;;;4.90;99.90;;;;;;6222329;23;20019;-94
2023/03/12 06:24:49;;;;;;;34.97;3.70;;;4.80;99.90;;;;;;6222967;23;20114;-95
2023/03/12 06:27:15;;;;;;;37.72;4.82;;;4.80;99.90;;;;;;6223148;23;20431;-94
2023/03/12 06:29:41;;;;;;;40.03;4.88;;;4.80;99.90;;;;;;6222089;23;20015;-95
2023/03/12 06:32:08;;;;;;;29.33;5.03;;;4.80;99.90;;;;;;6221351;23;20138;-95
2023/03/12 06:34:35;;;;;;;28.30;4.35;;;4.80;99.90;;;;;;6221396;23;20034;-96
2023/03/12 06:37:00;;;;;;;28.50;5.57;;;4.80;99.90;;;;;;6221623;23;20026;-95
2023/03/12 06:39:28;;;;;;;35.28;4.72;;;4.80;99.90;;;;;;6221665;23;20043;-92
2023/03/12 06:41:54;;;;;;;24.10;3.95;;;4.90;99.90;;;;;;6220996;23;20004;-94
2023/03/12 06:44:20;;;;;;;31.77;3.85;;;4.90;99.90;;;;;;6220386;23;20000;-94
2023/03/12 06:46:46;;;;;;;20.73;3.17;;;5.00;99.90;;;;;;6221259;23;20305;-93
2023/03/12 06:49:11;;;;;;;31.92;4.40;;;4.90;99.90;;;;;;6221254;23;20004;-93
2023/03/12 06:51:37;;;;;;;30.50;3.90;;;4.90;99.90;;;;;;6224429;23;20015;-93
2023/03/12 06:54:03;;;;;;;23.90;4.40;;;4.80;99.90;;;;;;6222139;23;20000;-95
2023/03/12 06:56:29;;;;;;;33.10;4.03;;;4.90;99.90;;;;;;6221725;23;20076;-93
2023/03/12 06:58:55;;;;;;;31.90;4.00;;;4.90;99.90;;;;;;6247447;23;20012;-94
2023/03/12 07:01:21;;;;;;;33.60;4.30;;;4.90;99.90;;;;;;6221252;23;20039;-94
2023/03/12 07:03:47;;;;;;;33.40;3.55;;;4.90;99.90;;;;;;6221460;23;20493;-94
2023/03/12 07:06:16;;;;;;;25.08;3.50;;;4.80;99.90;;;;;;6247904;23;20020;-93
2023/03/12 07:08:43;;;;;;;21.52;3.45;;;4.80;99.90;;;;;;6219989;23;20015;-93
2023/03/12 07:11:09;;;;;;;22.88;3.47;;;4.80;99.90;;;;;;6247437;23;20000;-93
2023/03/12 07:13:35;;;;;;;41.28;7.13;;;4.80;99.90;;;;;;6220651;23;20089;-92
2023/03/12 07:16:01;;;;;;;36.92;4.63;;;4.70;99.90;;;;;;6221132;23;20423;-93
2023/03/12 07:18:26;;;;;;;37.95;4.10;;;4.90;99.90;;;;;;6220690;23;20004;-93
2023/03/12 07:20:52;;;;;;;35.38;4.10;;;4.90;99.90;;;;;;6221468;23;20063;-93
2023/03/12 07:23:19;;;;;;;48.42;4.18;;;5.10;99.90;;;;;;6220936;23;20005;-93
2023/03/12 07:25:44;;;;;;;43.08;5.20;;;5.10;99.90;;;;;;6221926;23;20008;-93
2023/03/12 07:28:11;;;;;;;39.10;4.13;;;5.10;99.90;;;;;;6222684;23;20040;-94
2023/03/12 07:30:37;;;;;;;35.90;3.85;;;5.20;99.90;;;;;;6222727;23;20004;-92
2023/03/12 07:33:08;;;;;;;39.53;4.75;;;5.20;99.90;;;;;;6227169;23;20000;-92
2023/03/12 07:35:40;;;;;;;42.47;3.83;;;5.30;99.90;;;;;;6237548;23;20001;-91
2023/03/12 07:38:06;;;;;;;43.33;6.43;;;5.30;99.90;;;;;;6239527;23;20332;-92
2023/03/12 07:40:33;;;;;;;33.10;5.05;;;5.30;99.90;;;;;;6241424;23;20009;-91
2023/03/12 07:42:59;;;;;;;27.27;3.92;;;5.30;99.90;;;;;;6244485;23;20016;-90
2023/03/12 07:45:25;;;;;;;32.83;4.63;;;5.40;99.90;;;;;;6247521;23;20019;-91
2023/03/12 07:47:51;;;;;;;34.08;3.92;;;5.40;99.90;;;;;;6246540;23;20004;-90
2023/03/12 07:50:17;;;;;;;36.78;4.65;;;5.40;99.90;;;;;;6244548;23;20012;-90
2023/03/12 07:52:43;;;;;;;33.58;4.40;;;5.40;99.90;;;;;;6229391;23;20004;-92
2023/03/12 07:55:09;;;;;;;29.80;3.60;;;5.40;99.90;;;;;;6221512;23;20004;-90
2023/03/12 07:57:37;;;;;;;32.13;4.78;;;5.40;99.90;;;;;;6220848;23;20084;-92
2023/03/12 08:00:06;;;;;;;33.90;4.88;;;5.40;99.90;;;;;;6222376;23;20023;-93
2023/03/12 08:02:33;;;;;;;38.63;5.05;;;5.40;99.90;;;;;;6221539;23;20461;-93
2023/03/12 08:04:59;;;;;;;45.45;5.43;;;5.40;99.90;;;;;;6221808;23;20031;-91
2023/03/12 08:07:30;;;;;;;23.80;3.70;;;5.50;99.90;;;;;;6221535;23;20039;-93
2023/03/12 08:09:59;;;;;;;37.25;3.80;;;5.40;99.90;;;;;;6222441;23;20004;-91
2023/03/12 08:12:25;;;;;;;35.35;4.95;;;5.30;99.90;;;;;;6219635;23;20015;-93
2023/03/12 08:14:51;;;;;;;25.23;4.85;;;5.30;99.90;;;;;;6220688;23;20008;-92
2023/03/12 08:17:17;;;;;;;31.73;4.28;;;5.30;99.90;;;;;;6247343;22;20082;-91
2023/03/12 08:19:42;;;;;;;32.33;5.43;;;5.20;99.90;;;;;;6219565;23;20004;-92
2023/03/12 08:22:08;;;;;;;45.42;5.13;;;5.20;99.90;;;;;;6219917;23;20008;-90
2023/03/12 08:24:34;;;;;;;29.67;4.38;;;5.20;99.90;;;;;;6219964;23;20007;-91
2023/03/12 08:27:00;;;;;;;33.53;4.32;;;5.20;99.90;;;;;;6219190;23;20450;-92
2023/03/12 08:29:26;;;;;;;38.55;5.20;;;5.20;99.90;;;;;;6219697;23;20008;-91
2023/03/12 08:31:52;;;;;;;35.10;6.15;;;5.10;99.90;;;;;;6220148;23;20004;-91
2023/03/12 08:34:17;;;;;;;32.22;4.68;;;5.20;99.90;;;;;;6220519;23;20012;-92
2023/03/12 08:36:44;;;;;;;37.35;4.28;;;5.10;99.90;;;;;;6246642;23;20020;-93
2023/03/12 08:39:10;;;;;;;28.75;4.38;;;5.10;99.90;;;;;;6219755;23;20015;-93
2023/03/12 08:41:35;;;;;;;34.88;4.25;;;5.20;99.90;;;;;;6219944;23;20004;-94
2023/03/12 08:44:01;;;;;;;36.60;4.55;;;5.10;99.90;;;;;;6219776;23;20004;-93
2023/03/12 08:46:27;;;;;;;31.42;4.88;;;5.20;99.90;;;;;;6246871;23;20015;-93
2023/03/12 08:48:52;;;;;;;32.97;3.78;;;5.10;99.90;;;;;;6220067;23;20083;-93
2023/03/12 08:51:21;;;;;;;20.98;3.33;;;5.10;99.90;;;;;;6221379;23;20010;-92
2023/03/12 08:53:47;;;;;;;28.52;3.67;;;5.10;99.90;;;;;;6219845;23;20008;-94
2023/03/12 08:56:13;;;;;;;33.78;3.85;;;5.20;99.90;;;;;;6222302;23;20088;-92
2023/03/12 08:58:38;;;;;;;18.40;2.90;;;5.20;99.90;;;;;;6225460;23;20012;-92
2023/03/12 09:01:10;;;;;;;18.15;3.75;;;5.20;99.90;;;;;;6223283;23;20004;-91
2023/03/12 09:03:36;;;;;;;27.42;3.63;;;5.30;99.90;;;;;;6246317;23;20034;-93
2023/03/12 09:06:12;;;;;;;36.35;4.38;;;5.30;99.90;;;;;;6221420;23;20008;-94
2023/03/12 09:08:38;;;;;;;27.83;4.68;;;5.30;99.90;;;;;;6220746;23;20424;-91
2023/03/12 09:11:04;;;;;;;24.45;3.75;;;5.40;99.90;;;;;;6222018;23;20340;-91
2023/03/12 09:13:30;;;;;;;19.58;3.15;;;5.40;99.90;;;;;;6251951;23;20000;-94
2023/03/12 09:16:01;;;;;;;32.20;4.80;;;5.40;99.90;;;;;;6233157;23;20477;-91
2023/03/12 09:18:28;;;;;;;37.67;4.68;;;5.40;99.90;;;;;;6238302;23;20032;-92
2023/03/12 09:20:54;;;;;;;29.33;4.05;;;5.40;99.90;;;;;;6234712;23;20011;-91
2023/03/12 09:23:20;;;;;;;38.28;4.45;;;5.50;99.90;;;;;;6233930;23;20000;-95
2023/03/12 09:25:46;;;;;;;32.38;4.65;;;5.50;99.90;;;;;;6227001;23;20011;-92
2023/03/12 09:28:12;;;;;;;35.45;5.20;;;5.60;99.90;;;;;;6229701;23;20162;-93
2023/03/12 09:30:38;;;;;;;29.75;3.75;;;5.60;99.90;;;;;;6225248;23;19996;-93
2023/03/12 09:33:04;;;;;;;27.20;4.00;;;5.70;99.90;;;;;;6221361;23;20020;-91
2023/03/12 09:35:30;;;;;;;23.48;3.33;;;5.90;99.90;;;;;;6250420;23;20054;-93
2023/03/12 09:37:56;;;;;;;36.33;4.35;;;5.90;99.90;;;;;;6222254;23;20015;-92
2023/03/12 09:40:25;;;;;;;30.70;4.65;;;6.10;99.90;;;;;;6221894;23;20012;-93
2023/03/12 09:43:01;;;;;;;34.10;5.20;;;6.40;99.90;;;;;;6222573;23;20023;-93
2023/03/12 09:45:32;;;;;;;25.75;4.53;;;6.60;99.90;;;;;;6222112;23;20036;-91
2023/03/12 09:48:03;;;;;;;29.27;5.00;;;7.00;99.90;;;;;;6222090;23;20004;-90
2023/03/12 09:50:32;;;;;;;29.65;4.13;;;7.30;99.90;;;;;;6222286;23;20008;-92
2023/03/12 09:53:30;;;;;;;26.25;4.30;;;7.60;99.90;;;;;;6220347;23;20493;-90
2023/03/12 09:55:57;;;;;;;36.30;5.18;;;7.80;99.90;;;;;;6155699;23;20004;-90
2023/03/12 09:58:31;;;;;;;35.55;4.38;;;8.00;99.90;;;;;;6220820;23;20016;-93
2023/03/12 10:01:38;;;;;;;30.65;3.38;;;8.20;99.90;;;;;;6223444;23;20331;-91
2023/03/12 10:04:21;;;;;;;38.35;5.63;;;8.40;99.90;;;;;;6247687;23;20428;-92
2023/03/12 10:06:54;;;;;;;33.15;3.88;;;8.50;99.90;;;;;;6249258;23;20000;-91
2023/03/12 10:10:02;;;;;;;28.55;4.53;;;8.60;99.90;;;;;;6247523;23;20007;-91
2023/03/12 10:12:49;;;;;;;34.45;4.47;;;8.70;99.90;;;;;;6220205;23;20086;-93
2023/03/12 10:15:34;;;;;;;41.72;4.32;;;8.90;99.90;;;;;;6225759;23;20073;-91
2023/03/12 10:18:33;;;;;;;33.78;4.28;;;9.10;99.90;;;;;;6220668;23;20012;-91
2023/03/12 10:21:27;;;;;;;29.67;5.00;;;9.30;99.90;;;;;;6220316;23;20467;-92
2023/03/12 10:24:15;;;;;;;34.40;4.72;;;9.50;99.90;;;;;;6221342;23;20454;-92
2023/03/12 10:26:50;;;;;;;32.30;5.57;;;9.70;99.90;;;;;;6249228;23;20004;-92
2023/03/12 10:29:32;;;;;;;30.27;3.45;;;9.80;99.90;;;;;;6248819;23;20011;-91
2023/03/12 10:32:07;;;;;;;34.63;3.47;;;9.90;99.90;;;;;;6222396;23;20026;-91
2023/03/12 10:34:44;;;;;;;33.25;4.15;;;9.90;99.90;;;;;;6249087;23;20127;-92
2023/03/12 10:37:36;;;;;;;26.00;3.72;;;9.90;99.90;;;;;;6247698;23;20004;-90
2023/03/12 10:40:04;;;;;;;29.77;4.72;;;10.00;99.90;;;;;;6247475;23;20435;-92
2023/03/12 10:42:30;;;;;;;37.72;5.70;;;10.00;99.90;;;;;;6247719;23;20003;-91
2023/03/12 10:45:09;;;;;;;28.42;4.60;;;10.10;99.90;;;;;;6220787;23;20012;-92
2023/03/12 10:47:40;;;;;;;22.00;3.72;;;10.10;99.90;;;;;;6221099;23;20011;-92
2023/03/12 10:50:13;;;;;;;26.48;4.53;;;10.20;99.90;;;;;;6220439;23;20032;-90
2023/03/12 10:52:40;;;;;;;23.48;4.55;;;10.50;99.90;;;;;;6247687;23;19996;-90
2023/03/12 10:55:28;;;;;;;23.58;3.30;;;10.90;99.90;;;;;;6221603;23;20065;-92
2023/03/12 10:57:55;;;;;;;27.55;3.53;;;11.10;99.90;;;;;;6221568;23;20023;-90
2023/03/12 11:00:25;;;;;;;26.80;3.70;;;11.30;99.90;;;;;;6221317;23;20035;-92
2023/03/12 11:03:02;;;;;;;23.88;4.15;;;11.50;99.90;;;;;;6221610;23;20119;-91
2023/03/12 11:05:34;;;;;;;27.70;3.65;;;11.60;99.90;;;;;;6248846;23;19996;-91
2023/03/12 11:08:01;;;;;;;27.50;5.32;;;11.60;99.90;;;;;;6248180;23;20018;-90
2023/03/12 11:10:39;;;;;;;21.77;4.93;;;11.70;99.90;;;;;;6247987;23;20052;-91
2023/03/12 11:13:33;;;;;;;29.45;5.22;;;11.70;99.90;;;;;;6248521;23;20000;-91
2023/03/12 11:16:19;;;;;;;24.25;4.00;;;11.60;99.90;;;;;;6221181;23;20011;-92
2023/03/12 11:19:00;;;;;;;21.30;3.53;;;11.40;99.90;;;;;;6200889;23;20019;-91
2023/03/12 11:21:27;;;;;;;33.40;4.22;;;11.30;99.90;;;;;;6248005;23;20114;-89
2023/03/12 11:23:55;;;;;;;19.20;2.97;;;11.20;99.90;;;;;;6247779;23;20000;-91
2023/03/12 11:26:29;;;;;;;25.08;3.63;;;11.20;99.90;;;;;;6221758;23;20339;-92
2023/03/12 11:29:14;;;;;;;30.90;5.30;;;11.30;99.90;;;;;;6248087;23;20004;-91
2023/03/12 11:31:48;;;;;;;27.08;6.40;;;11.60;99.90;;;;;;6221119;23;20444;-92
2023/03/12 11:34:21;;;;;;;19.58;3.78;;;11.90;99.90;;;;;;6247818;23;20079;-92
2023/03/12 11:36:57;;;;;;;27.63;4.43;;;12.20;99.90;;;;;;6247850;23;20336;-91
2023/03/12 11:39:50;;;;;;;27.73;5.13;;;12.70;99.90;;;;;;6221099;23;20008;-91
2023/03/12 11:42:23;;;;;;;24.73;4.38;;;13.10;99.90;;;;;;6229273;23;20008;-91
2023/03/12 11:45:06;;;;;;;26.05;3.20;;;13.20;99.90;;;;;;6222987;23;20000;-91
2023/03/12 11:48:08;;;;;;;22.50;3.13;;;13.40;99.90;;;;;;6221661;23;20146;-91
2023/03/12 11:50:54;;;;;;;18.42;2.92;;;13.50;99.90;;;;;;6221973;23;20454;-92
2023/03/12 11:53:40;;;;;;;16.33;2.70;;;13.70;99.90;;;;;;6222226;23;20026;-93
2023/03/12 11:56:21;;;;;;;22.13;3.30;;;14.00;99.90;;;;;;6247868;23;20026;-92
2023/03/12 11:59:07;;;;;;;23.55;3.17;;;14.20;99.90;;;;;;6219406;23;20436;-93
2023/03/12 12:01:49;;;;;;;21.80;2.85;;;14.30;99.60;;;;;;6200432;23;20379;-93
2023/03/12 12:04:54;;;;;;;19.52;4.82;;;14.50;97.90;;;;;;6247894;23;20030;-93
2023/03/12 12:07:55;;;;;;;23.52;3.47;;;14.60;96.20;;;;;;6221156;23;20000;-93
2023/03/12 12:10:31;;;;;;;22.70;2.75;;;14.80;95.60;;;;;;6221159;23;20099;-93
2023/03/12 12:13:22;;;;;;;17.52;2.83;;;15.00;95.10;;;;;;6221150;23;20008;-92
2023/03/12 12:16:18;;;;;;;18.52;3.08;;;15.20;94.00;;;;;;6247712;22;20010;-93
2023/03/12 12:19:21;;;;;;;15.10;3.15;;;15.40;93.00;;;;;;6221043;23;20004;-92
2023/03/12 12:22:31;;;;;;;17.65;3.00;;;15.60;92.50;;;;;;6220874;23;20004;-94
2023/03/12 12:25:26;;;;;;;22.00;3.38;;;15.80;91.90;;;;;;6101604;23;20018;-92
2023/03/12 12:28:07;;;;;;;17.10;3.13;;;16.10;90.80;;;;;;6101268;23;20010;-93
2023/03/12 12:30:43;;;;;;;15.93;3.10;;;16.30;90.40;;;;;;6101841;23;20002;-94
2023/03/12 12:33:21;;;;;;;18.35;2.75;;;16.70;89.30;;;;;;6101144;23;20025;-94
2023/03/12 12:35:47;;;;;;;18.85;2.88;;;16.90;87.20;;;;;;6102263;23;20092;-93
2023/03/12 12:38:18;;;;;;;14.40;2.95;;;17.10;86.10;;;;;;6102326;23;20089;-94
2023/03/12 12:41:00;;;;;;;16.45;2.42;;;17.10;83.70;;;;;;6126565;23;20065;-94
2023/03/12 12:43:34;;;;;;;14.18;2.78;;;17.10;82.80;;;;;;6101498;23;20100;-93
2023/03/12 12:46:18;;;;;;;14.43;2.63;;;16.90;80.70;;;;;;6101296;23;20010;-94
2023/03/12 12:48:56;;;;;;;13.25;2.75;;;16.70;80.20;;;;;;6125884;23;20010;-91
2023/03/12 12:51:35;;;;;;;17.92;2.80;;;16.80;80.60;;;;;;6101364;23;20009;-94
2023/03/12 12:54:22;;;;;;;18.58;2.40;;;16.90;81.00;;;;;;6101643;23;20049;-95
2023/03/12 12:57:13;;;;;;;19.17;2.88;;;17.30;80.40;;;;;;6102020;23;20021;-92
2023/03/12 12:59:42;;;;;;;15.38;3.00;;;17.30;78.50;;;;;;6217290;23;20008;-93
2023/03/12 13:02:21;;;;;;;14.32;2.70;;;17.40;78.40;;;;;;6229658;23;20462;-92